Thursday, September 20, 2018, 10:08 PM EDT
Back to Local

KIZG, Fryeburg Eastern Slopes Rgnl

Location: Fryeburg, ME, United States Lat: 43.983
Local Time: 10:08 PM EDT ( 2:08 GMT) Lon: -70.95
Time Zone: US/Eastern Elev: 452 ft

Show me the last for .
Show Decoded

2018-09-20 21:54 METAR KIZG 210154Z AUTO 17004KT 10SM BKN024 13/12 A3031 RMK AO2 SLP265 T01280117
                 =
2018-09-20 21:30 METAR KIZG 210130Z AUTO 00000KT 10SM BKN024 13/12 A3031 RMK AO2 T01330117 =
2018-09-20 20:54 METAR KIZG 210054Z AUTO 00000KT 10SM FEW110 13/12 A3029 RMK AO2 SLP259 T01330117
                 =
2018-09-20 19:54 METAR KIZG 202354Z AUTO 16004KT 10SM SCT038 BKN049 BKN110 14/12 A3030 RMK AO2
                 SLP260 T01440122 10178 20144 53015 =
2018-09-20 18:54 METAR KIZG 202254Z AUTO VRB03KT 10SM OVC040 15/12 A3028 RMK AO2 SLP254 T01500122
                 =
2018-09-20 17:54 METAR KIZG 202154Z AUTO 15004KT 10SM FEW021 SCT027 OVC041 16/12 A3026 RMK AO2
                 SLP247 T01610122 =
2018-09-20 17:29 METAR KIZG 202129Z AUTO 15003KT 10SM BKN022 BKN027 OVC043 17/12 A3027 RMK AO2
                 T01670122 =
2018-09-20 16:54 METAR KIZG 202054Z AUTO 16005KT 10SM BKN038 BKN049 17/12 A3025 RMK AO2 SLP244
                 T01670117 58006 =
2018-09-20 15:54 METAR KIZG 201954Z AUTO VRB05KT 10SM FEW025 17/11 A3026 RMK AO2 SLP249 T01720111
                 =
2018-09-20 15:22 METAR KIZG 201922Z AUTO 18003KT 10SM SCT024 BKN055 17/12 A3026 RMK AO2 T01720117
                 =
2018-09-20 14:54 METAR KIZG 201854Z AUTO 00000KT 10SM BKN024 BKN035 OVC045 17/12 A3027 RMK AO2
                 SLP250 T01720117 =
2018-09-20 14:52 METAR KIZG 201852Z AUTO 18003KT 10SM BKN024 BKN035 OVC045 17/12 A3027 RMK AO2 =
2018-09-20 14:30 METAR KIZG 201830Z AUTO 19004KT 10SM SCT026 BKN038 OVC045 17/12 A3026 RMK AO2
                 T01720117 =
2018-09-20 14:08 METAR KIZG 201808Z AUTO VRB03KT 10SM BKN026 BKN050 16/11 A3026 RMK AO2 T01610111
                 =
2018-09-20 13:54 METAR KIZG 201754Z AUTO 10SM FEW026 SCT036 BKN050 16/11 A3025 RMK AO2 SLP246
                 T01610106 10167 20139 58011 =
2018-09-20 12:54 METAR KIZG 201654Z AUTO 00000KT 10SM FEW022 SCT029 BKN055 17/11 A3028 RMK AO2
                 SLP256 T01670111 =
2018-09-20 11:54 METAR KIZG 201554Z AUTO 08004KT 10SM SCT050 16/12 A3029 RMK AO2 SLP258 T01610117
                 =
2018-09-20 10:54 METAR KIZG 201454Z AUTO VRB04KT 10SM FEW017 BKN031 OVC047 16/12 A3029 RMK AO2
                 SLP257 T01560122 51013 =
2018-09-20 09:54 METAR KIZG 201354Z AUTO 00000KT 10SM FEW016 OVC042 15/11 A3028 RMK AO2 SLP256
                 T01500106 =
2018-09-20 09:16 METAR KIZG 201316Z AUTO 00000KT 10SM SCT013 BKN031 OVC042 15/11 A3028 RMK AO2
                 T01500111 =
2018-09-20 08:54 METAR KIZG 201254Z AUTO 00000KT 10SM FEW014 BKN029 OVC044 14/11 A3028 RMK AO2
                 SLP256 T01440111 =
2018-09-20 07:54 METAR KIZG 201154Z AUTO 10003KT 10SM OVC023 14/11 A3025 RMK AO2 SLP244 T01390111
                 10139 20133 53019 =
2018-09-20 06:54 METAR KIZG 201054Z AUTO 00000KT 10SM SCT014 BKN027 OVC047 13/11 A3022 RMK AO2
                 SLP233 T01330111 =
2018-09-20 05:54 METAR KIZG 200954Z AUTO 00000KT 10SM OVC023 13/11 A3021 RMK AO2 SLP230 T01330111
                 =
2018-09-20 04:54 METAR KIZG 200854Z AUTO 00000KT 10SM OVC021 14/11 A3019 RMK AO2 SLP225 T01390111
                 51007 =
2018-09-20 03:54 METAR KIZG 200754Z AUTO 01003KT 10SM OVC019 13/11 A3019 RMK AO2 SLP224 T01330111
                 =
2018-09-20 02:54 METAR KIZG 200654Z AUTO 33003KT 10SM BKN019 OVC025 14/11 A3019 RMK AO2 SLP223
                 T01390111 =
2018-09-20 01:54 METAR KIZG 200554Z AUTO 05007KT 10SM OVC023 14/11 A3017 RMK AO2 SLP217 60000
                 T01390106 10161 20139 51008 =
2018-09-20 00:54 METAR KIZG 200454Z AUTO 00000KT 10SM BKN018 OVC025 14/11 A3017 RMK AO2 SLP216
                 T01440106 401830139 =
2018-09-19 23:54 METAR KIZG 200354Z AUTO 08004KT 10SM BKN025 OVC050 14/11 A3016 RMK AO2 SLP214
                 T01440106 =
2018-09-19 23:41 METAR KIZG 200341Z AUTO 04004KT 10SM BKN023 BKN031 OVC050 14/11 A3016 RMK AO2
                 T01440106 =
2018-09-19 22:54 METAR KIZG 200254Z AUTO 04006KT 10SM FEW029 OVC050 15/11 A3015 RMK AO2 SLP209
                 60000 T01500106 51014 =
2018-09-19 22:35 METAR KIZG 200235Z AUTO 05003KT 10SM FEW022 SCT030 OVC048 15/11 A3014 RMK AO2
                 T01500106 =

Support USWX by starting your Amazon purchase here.